Time;durP1;ratioP1;P1;durP2;ratioP2;P2;SDS_P1;SDS_P2;PMS_P1;PMS_P2;Temp;Humidity;BMP_temperature;BMP_pressure;BME280_temperature;BME280_humidity;BME280_pressure;Samples;Min_cycle;Max_cycle;Signal;HPM_P1;HPM_P2
2021/01/01 00:01:05;;;;;;;71.60;33.63;;;5.50;99.90;;;;;;5090535;28;20028;-85
2021/01/01 00:03:42;;;;;;;61.20;31.77;;;5.40;99.90;;;;;;5074860;28;20024;-83
2021/01/01 00:06:32;;;;;;;66.50;29.75;;;5.40;99.90;;;;;;5065223;28;20446;-85
2021/01/01 00:08:58;;;;;;;57.95;31.60;;;5.40;99.90;;;;;;5062645;28;20436;-80
2021/01/01 00:11:24;;;;;;;51.03;29.40;;;5.50;99.90;;;;;;5065692;28;20035;-81
2021/01/01 00:14:08;;;;;;;62.53;36.38;;;5.50;99.90;;;;;;5063876;28;20059;-79
2021/01/01 00:16:36;;;;;;;68.13;39.15;;;5.60;99.90;;;;;;5079941;28;20028;-84
2021/01/01 00:19:02;;;;;;;59.20;36.38;;;5.60;99.90;;;;;;5087497;28;20031;-77
2021/01/01 00:21:31;;;;;;;64.82;33.05;;;5.60;99.90;;;;;;5073954;28;20351;-77
2021/01/01 00:23:57;;;;;;;44.83;25.58;;;5.60;99.90;;;;;;5066755;28;20494;-77
2021/01/01 00:26:23;;;;;;;56.50;28.90;;;5.60;99.90;;;;;;5075009;28;20082;-75
2021/01/01 00:28:49;;;;;;;61.13;31.73;;;5.60;99.90;;;;;;5090570;28;20028;-76
2021/01/01 00:31:21;;;;;;;45.40;25.63;;;5.50;99.90;;;;;;5091381;28;20052;-82
2021/01/01 00:33:48;;;;;;;47.50;26.75;;;5.50;99.90;;;;;;5093635;28;20050;-82
2021/01/01 00:36:14;;;;;;;46.78;26.73;;;5.50;99.90;;;;;;5094855;28;20036;-83
2021/01/01 00:38:51;;;;;;;40.42;24.38;;;5.40;99.90;;;;;;5084038;28;20043;-81
2021/01/01 00:41:31;;;;;;;40.03;23.15;;;5.50;99.90;;;;;;5066291;28;20374;-80
2021/01/01 00:43:58;;;;;;;44.20;20.45;;;5.50;99.90;;;;;;5070950;28;20405;-80
2021/01/01 00:46:25;;;;;;;34.90;18.67;;;5.10;99.90;;;;;;5075714;28;20101;-78
2021/01/01 00:48:52;;;;;;;36.80;21.25;;;5.10;99.90;;;;;;5067446;28;20037;-80
2021/01/01 00:51:30;;;;;;;34.00;21.48;;;4.90;99.90;;;;;;5098172;28;20028;-80
2021/01/01 00:53:57;;;;;;;33.97;20.35;;;4.90;99.90;;;;;;5092814;28;20025;-78
2021/01/01 00:56:27;;;;;;;32.60;18.30;;;4.80;99.90;;;;;;5074197;28;20519;-79
2021/01/01 00:58:56;;;;;;;35.28;21.77;;;4.90;99.90;;;;;;5095710;28;20078;-79
2021/01/01 01:01:24;;;;;;;29.80;17.77;;;4.90;99.90;;;;;;5091219;28;20073;-81
2021/01/01 01:03:51;;;;;;;33.63;18.80;;;4.90;99.90;;;;;;5075003;28;20109;-78
2021/01/01 01:06:17;;;;;;;31.75;19.30;;;4.80;99.90;;;;;;5090262;28;20035;-78
2021/01/01 01:08:43;;;;;;;35.20;20.45;;;4.70;99.90;;;;;;5094310;28;20032;-77
2021/01/01 01:11:09;;;;;;;35.33;20.23;;;4.70;99.90;;;;;;5092596;28;20032;-81
2021/01/01 01:13:35;;;;;;;34.05;19.98;;;4.70;99.90;;;;;;5090281;28;20031;-82
2021/01/01 01:16:01;;;;;;;25.10;15.95;;;4.80;99.90;;;;;;5087732;28;20024;-80
2021/01/01 01:18:27;;;;;;;31.83;18.73;;;4.70;99.90;;;;;;5091080;28;20098;-82
2021/01/01 01:20:53;;;;;;;31.05;16.73;;;4.60;99.90;;;;;;5074147;28;20032;-81
2021/01/01 01:23:22;;;;;;;24.08;14.57;;;4.70;99.90;;;;;;5095279;28;20020;-82
2021/01/01 01:25:48;;;;;;;29.67;16.15;;;4.80;99.90;;;;;;5112090;28;20049;-77
2021/01/01 01:28:14;;;;;;;27.88;17.80;;;4.80;99.90;;;;;;5107122;28;20040;-80
2021/01/01 01:30:40;;;;;;;42.95;22.63;;;4.80;99.90;;;;;;5093116;28;20052;-78
2021/01/01 01:33:06;;;;;;;32.90;19.42;;;4.70;99.90;;;;;;5089975;28;20078;-77
2021/01/01 01:35:32;;;;;;;35.40;19.73;;;4.60;99.90;;;;;;5070318;28;20024;-84
2021/01/01 01:37:59;;;;;;;28.95;16.60;;;;;;;;;;5073045;28;20482;-84
2021/01/01 01:40:26;;;;;;;30.48;18.92;;;4.40;99.90;;;;;;5079061;28;20027;-82
2021/01/01 01:43:04;;;;;;;27.80;15.10;;;4.60;99.90;;;;;;5069717;28;20016;-85
2021/01/01 01:45:35;;;;;;;35.92;19.55;;;4.70;99.90;;;;;;5044818;28;20035;-88
2021/01/01 01:48:03;;;;;;;38.28;23.15;;;4.70;99.90;;;;;;5070617;28;20036;-82
2021/01/01 01:50:30;;;;;;;44.50;25.30;;;4.70;99.90;;;;;;5077137;28;20020;-82
2021/01/01 01:52:56;;;;;;;37.05;20.17;;;4.60;99.90;;;;;;5076074;28;20020;-82
2021/01/01 01:55:23;;;;;;;35.75;19.42;;;;;;;;;;5085705;28;20023;-82
2021/01/01 01:57:49;;;;;;;33.47;19.92;;;4.20;99.90;;;;;;5075527;28;20036;-83
2021/01/01 02:01:02;;;;;;;36.92;20.17;;;;;;;;;;5063250;28;20478;-76
2021/01/01 02:03:06;;;;;;;28.15;17.55;;;;;;;;;;5074063;28;20024;-79
2021/01/01 02:05:34;;;;;;;32.88;18.98;;;;;;;;;;5067260;28;20478;-80
2021/01/01 02:08:02;;;;;;;32.35;18.92;;;;;;;;;;5080327;28;20075;-79
2021/01/01 02:10:28;;;;;;;29.90;18.80;;;;;;;;;;5065651;28;20023;-78
2021/01/01 02:12:57;;;;;;;28.08;15.32;;;;;;;;;;5084566;28;20024;-78
2021/01/01 02:15:25;;;;;;;29.98;16.20;;;;;;;;;;5077188;28;20035;-77
2021/01/01 02:17:51;;;;;;;25.42;15.98;;;4.50;99.90;;;;;;5094032;28;20039;-76
2021/01/01 02:20:17;;;;;;;26.85;15.10;;;4.40;99.90;;;;;;5088830;28;20402;-76
2021/01/01 02:22:43;;;;;;;25.17;15.57;;;4.40;99.90;;;;;;5082988;28;20029;-80
2021/01/01 02:25:10;;;;;;;28.13;17.08;;;4.50;99.90;;;;;;5080634;28;20308;-77
2021/01/01 02:27:40;;;;;;;39.78;21.33;;;4.50;99.90;;;;;;5075328;28;20100;-79
2021/01/01 02:30:13;;;;;;;32.05;17.90;;;4.50;99.90;;;;;;5091738;28;20053;-80
2021/01/01 02:32:38;;;;;;;30.85;18.85;;;4.50;99.90;;;;;;5093124;28;20028;-79
2021/01/01 02:35:05;;;;;;;30.10;17.92;;;4.40;99.90;;;;;;5072497;28;20035;-78
2021/01/01 02:37:31;;;;;;;23.70;16.30;;;4.40;99.90;;;;;;5090831;28;20016;-77
2021/01/01 02:39:57;;;;;;;33.67;18.65;;;4.40;99.90;;;;;;5070254;28;20036;-79
2021/01/01 02:42:23;;;;;;;35.63;18.00;;;4.40;99.90;;;;;;5092671;28;20462;-79
2021/01/01 02:44:49;;;;;;;29.67;17.70;;;;;;;;;;5075135;28;20142;-78
2021/01/01 02:47:16;;;;;;;30.58;20.00;;;;;;;;;;5092562;28;20110;-78
2021/01/01 02:49:42;;;;;;;40.05;20.08;;;;;;;;;;5074988;28;20031;-78
2021/01/01 02:52:08;;;;;;;36.05;18.75;;;;;;;;;;5073788;28;20051;-78
2021/01/01 02:54:34;;;;;;;29.83;16.45;;;;;;;;;;5092605;28;20024;-78
2021/01/01 02:57:00;;;;;;;29.33;19.88;;;;;;;;;;5093216;28;20470;-77
2021/01/01 02:59:26;;;;;;;28.23;17.05;;;;;;;;;;5092669;28;20028;-77
2021/01/01 03:01:53;;;;;;;27.10;18.15;;;;;;;;;;5094176;28;20027;-78
2021/01/01 03:04:19;;;;;;;38.03;21.05;;;;;;;;;;5058634;28;20026;-79
2021/01/01 03:06:45;;;;;;;31.40;18.30;;;;;;;;;;5087434;28;20032;-79
2021/01/01 03:09:11;;;;;;;36.85;20.05;;;;;;;;;;5061546;28;20029;-77
2021/01/01 03:11:38;;;;;;;41.88;21.08;;;;;;;;;;5093911;28;20055;-78
2021/01/01 03:14:04;;;;;;;30.35;17.88;;;;;;;;;;5093206;28;20086;-78
2021/01/01 03:16:30;;;;;;;32.00;18.27;;;;;;;;;;5093739;28;20024;-78
2021/01/01 03:18:56;;;;;;;33.50;20.58;;;;;;;;;;5093082;28;20032;-78
2021/01/01 03:21:23;;;;;;;35.95;18.80;;;;;;;;;;5057261;28;20024;-78
2021/01/01 03:23:49;;;;;;;30.42;21.67;;;;;;;;;;5084502;28;20035;-77
2021/01/01 03:26:15;;;;;;;33.38;20.42;;;;;;;;;;5093843;28;20103;-78
2021/01/01 03:28:41;;;;;;;28.33;17.45;;;;;;;;;;5089576;28;20037;-78
2021/01/01 03:31:07;;;;;;;35.05;18.30;;;;;;;;;;5056134;28;20049;-78
2021/01/01 03:33:34;;;;;;;43.85;23.75;;;;;;;;;;5093875;28;20032;-80
2021/01/01 03:36:03;;;;;;;40.10;22.60;;;;;;;;;;5094887;28;20028;-82
2021/01/01 03:38:33;;;;;;;29.38;17.88;;;;;;;;;;5057228;28;20024;-82
2021/01/01 03:41:00;;;;;;;33.13;18.23;;;;;;;;;;5064571;28;20047;-82
2021/01/01 03:43:26;;;;;;;35.38;21.17;;;;;;;;;;5076603;28;20251;-82
2021/01/01 03:45:52;;;;;;;30.75;18.27;;;;;;;;;;5075930;28;20115;-82
2021/01/01 03:48:18;;;;;;;28.83;18.80;;;;;;;;;;5065928;28;20543;-85
2021/01/01 03:50:44;;;;;;;29.98;18.67;;;;;;;;;;5094297;28;20024;-83
2021/01/01 03:53:11;;;;;;;34.60;20.75;;;;;;;;;;5076389;28;20040;-82
2021/01/01 03:55:37;;;;;;;26.98;18.38;;;;;;;;;;5093304;28;20028;-83
2021/01/01 03:58:03;;;;;;;41.20;22.45;;;;;;;;;;5067265;28;20020;-77
2021/01/01 04:00:29;;;;;;;37.13;22.23;;;;;;;;;;5091442;28;20556;-76
2021/01/01 04:02:55;;;;;;;34.97;21.08;;;;;;;;;;5086515;28;20020;-77
2021/01/01 04:05:21;;;;;;;33.58;17.50;;;;;;;;;;5086091;28;20024;-78
2021/01/01 04:07:47;;;;;;;41.40;22.60;;;;;;;;;;5090277;28;20020;-77
2021/01/01 04:10:13;;;;;;;32.80;20.27;;;;;;;;;;5087953;28;20039;-77
2021/01/01 04:12:39;;;;;;;30.00;18.10;;;;;;;;;;5083229;28;20025;-83
2021/01/01 04:15:05;;;;;;;35.75;22.13;;;;;;;;;;5098355;28;20027;-81
2021/01/01 04:17:32;;;;;;;42.38;23.73;;;;;;;;;;5120374;28;20021;-82
2021/01/01 04:19:58;;;;;;;36.15;19.27;;;;;;;;;;5096990;28;20459;-81
2021/01/01 04:22:24;;;;;;;31.60;19.38;;;;;;;;;;5097208;28;20035;-81
2021/01/01 04:24:50;;;;;;;30.70;18.75;;;;;;;;;;5082257;28;20096;-81
2021/01/01 04:27:16;;;;;;;32.60;19.55;;;;;;;;;;5097134;28;20031;-80
2021/01/01 04:29:42;;;;;;;31.45;18.33;;;;;;;;;;5101800;28;20012;-79
2021/01/01 04:32:08;;;;;;;29.23;17.17;;;;;;;;;;5097396;28;20040;-79
2021/01/01 04:34:34;;;;;;;28.65;18.10;;;;;;;;;;5072758;28;20550;-79
2021/01/01 04:37:00;;;;;;;29.45;18.45;;;;;;;;;;5078779;28;20028;-80
2021/01/01 04:39:26;;;;;;;22.25;14.45;;;;;;;;;;5097135;28;20082;-80
2021/01/01 04:41:56;;;;;;;31.63;19.00;;;;;;;;;;5078519;28;20082;-79
2021/01/01 04:44:23;;;;;;;29.88;21.40;;;;;;;;;;5096770;28;20509;-79
2021/01/01 04:46:50;;;;;;;28.85;16.92;;;;;;;;;;5090694;28;20062;-78
2021/01/01 04:49:16;;;;;;;39.30;22.70;;;;;;;;;;5072974;28;20032;-78
2021/01/01 04:51:43;;;;;;;36.97;22.05;;;;;;;;;;5102364;28;20023;-78
2021/01/01 04:54:10;;;;;;;36.38;21.85;;;;;;;;;;5108823;28;20148;-78
2021/01/01 04:56:44;;;;;;;27.98;18.38;;;;;;;;;;5099831;28;20024;-82
2021/01/01 04:59:10;;;;;;;34.15;20.02;;;;;;;;;;5064170;28;20034;-81
2021/01/01 05:01:40;;;;;;;28.00;17.38;;;;;;;;;;5088729;28;20563;-81
2021/01/01 05:04:06;;;;;;;29.90;18.75;;;;;;;;;;5096209;28;20062;-82
2021/01/01 05:06:35;;;;;;;36.28;21.35;;;;;;;;;;5079119;28;20078;-81
2021/01/01 05:09:01;;;;;;;37.35;21.88;;;;;;;;;;5073263;28;20036;-82
2021/01/01 05:11:27;;;;;;;40.40;23.27;;;;;;;;;;5096489;28;20021;-78
2021/01/01 05:14:01;;;;;;;30.75;18.95;;;;;;;;;;5096595;28;20028;-81
2021/01/01 05:16:27;;;;;;;33.45;18.45;;;;;;;;;;5090568;28;20020;-80
2021/01/01 05:18:54;;;;;;;40.40;24.52;;;;;;;;;;5087547;28;20024;-80
2021/01/01 05:21:21;;;;;;;34.30;19.48;;;;;;;;;;5077510;28;20016;-81
2021/01/01 05:23:49;;;;;;;28.80;17.13;;;;;;;;;;5057674;28;20111;-81
2021/01/01 05:26:16;;;;;;;32.97;19.00;;;;;;;;;;5092494;28;20028;-80
2021/01/01 05:28:48;;;;;;;28.05;15.57;;;;;;;;;;5077542;28;20114;-80
2021/01/01 05:31:16;;;;;;;28.02;16.83;;;;;;;;;;5093927;28;20059;-80
2021/01/01 05:33:42;;;;;;;26.23;16.58;;;;;;;;;;5074906;28;20008;-80
2021/01/01 05:36:09;;;;;;;27.50;16.77;;;;;;;;;;5075191;28;20103;-79
2021/01/01 05:38:38;;;;;;;26.15;15.25;;;;;;;;;;5075288;28;20025;-81
2021/01/01 05:41:04;;;;;;;27.60;16.42;;;;;;;;;;5087023;28;20024;-81
2021/01/01 05:43:31;;;;;;;29.23;17.27;;;;;;;;;;5080664;28;20099;-82
2021/01/01 05:46:09;;;;;;;26.75;17.48;;;;;;;;;;5077856;28;20040;-81
2021/01/01 05:48:36;;;;;;;24.48;14.85;;;;;;;;;;5063382;28;20063;-81
2021/01/01 05:51:06;;;;;;;29.25;19.27;;;;;;;;;;5099276;28;20108;-81
2021/01/01 05:53:32;;;;;;;30.02;17.85;;;;;;;;;;5099901;28;20027;-80
2021/01/01 05:56:07;;;;;;;22.50;15.65;;;;;;;;;;5092318;28;20017;-83
2021/01/01 05:58:33;;;;;;;21.35;14.60;;;;;;;;;;5070349;28;20032;-81
2021/01/01 06:01:01;;;;;;;22.17;14.38;;;;;;;;;;5094656;28;20365;-81
2021/01/01 06:03:28;;;;;;;24.05;15.32;;;;;;;;;;5083386;28;20024;-81
2021/01/01 06:05:56;;;;;;;26.95;15.63;;;;;;;;;;5059479;28;20017;-81
2021/01/01 06:08:29;;;;;;;27.10;16.08;;;;;;;;;;5076701;28;20028;-80
2021/01/01 06:11:05;;;;;;;26.13;15.65;;;;;;;;;;5064243;28;20028;-80
2021/01/01 06:13:35;;;;;;;24.15;14.90;;;;;;;;;;5118703;28;20019;-80
2021/01/01 06:16:02;;;;;;;27.48;16.25;;;;;;;;;;5111521;28;20521;-82
2021/01/01 06:18:29;;;;;;;28.73;16.10;;;;;;;;;;5097264;28;20458;-81
2021/01/01 06:21:05;;;;;;;26.92;17.92;;;;;;;;;;5096771;28;20024;-80
2021/01/01 06:23:31;;;;;;;31.02;18.23;;;;;;;;;;5097537;28;20487;-82
2021/01/01 06:25:58;;;;;;;23.98;17.30;;;;;;;;;;5093410;28;20104;-80
2021/01/01 06:28:25;;;;;;;26.55;16.33;;;;;;;;;;5093182;28;20035;-81
2021/01/01 06:30:52;;;;;;;23.52;13.57;;;;;;;;;;5074087;28;20071;-78
2021/01/01 06:33:18;;;;;;;24.25;13.18;;;;;;;;;;5093886;28;20027;-78
2021/01/01 06:35:44;;;;;;;19.60;13.60;;;;;;;;;;5093873;28;20021;-76
2021/01/01 06:38:10;;;;;;;21.05;12.68;;;;;;;;;;5075572;28;20024;-76
2021/01/01 06:40:37;;;;;;;19.20;13.27;;;;;;;;;;5094094;28;20508;-78
2021/01/01 06:43:07;;;;;;;23.08;15.30;;;;;;;;;;5093926;28;20063;-78
2021/01/01 06:45:43;;;;;;;24.80;14.55;;;;;;;;;;5093642;28;20020;-77
2021/01/01 06:48:11;;;;;;;25.52;16.92;;;;;;;;;;5093509;28;20036;-76
2021/01/01 06:50:38;;;;;;;30.77;17.23;;;;;;;;;;5093101;28;20043;-86
2021/01/01 06:53:06;;;;;;;26.60;15.50;;;;;;;;;;5067639;28;20046;-83
2021/01/01 06:55:36;;;;;;;26.73;15.55;;;;;;;;;;5071523;28;20048;-83
2021/01/01 06:58:03;;;;;;;26.58;14.75;;;;;;;;;;5064168;28;20488;-82
2021/01/01 07:00:47;;;;;;;25.30;16.17;;;;;;;;;;5093899;28;20109;-82
2021/01/01 07:03:35;;;;;;;26.95;16.48;;;;;;;;;;5083084;28;20024;-77
2021/01/01 07:06:01;;;;;;;26.00;16.05;;;;;;;;;;5093534;28;20020;-77
2021/01/01 07:08:42;;;;;;;24.13;15.05;;;;;;;;;;5076093;28;20044;-85
2021/01/01 07:11:08;;;;;;;22.08;14.40;;;;;;;;;;5094325;28;20024;-83
2021/01/01 07:13:54;;;;;;;22.00;13.65;;;;;;;;;;5065741;28;20017;-82
2021/01/01 07:16:21;;;;;;;24.67;13.45;;;;;;;;;;5082261;28;20059;-79
2021/01/01 07:18:47;;;;;;;25.20;12.70;;;;;;;;;;5094442;28;20032;-81
2021/01/01 07:21:15;;;;;;;19.95;12.13;;;;;;;;;;5073345;28;20039;-80
2021/01/01 07:23:41;;;;;;;20.98;12.18;;;;;;;;;;5099088;28;20016;-78
2021/01/01 07:26:08;;;;;;;21.13;11.75;;;;;;;;;;5097175;28;20020;-78
2021/01/01 07:28:34;;;;;;;21.52;12.77;;;;;;;;;;5086933;28;20067;-79
2021/01/01 07:31:00;;;;;;;18.05;11.93;;;;;;;;;;5087341;28;20052;-80
2021/01/01 07:33:27;;;;;;;19.08;12.27;;;;;;;;;;5092160;28;20055;-82
2021/01/01 07:36:04;;;;;;;18.65;12.77;;;;;;;;;;5105282;28;20067;-82
2021/01/01 07:38:40;;;;;;;17.90;13.10;;;;;;;;;;5108001;28;20016;-81
2021/01/01 07:41:07;;;;;;;17.17;12.38;;;;;;;;;;5088412;28;20031;-81
2021/01/01 07:43:33;;;;;;;20.85;12.93;;;;;;;;;;5075422;28;20378;-82
2021/01/01 07:46:05;;;;;;;25.55;14.77;;;;;;;;;;5078002;28;20051;-82
2021/01/01 07:48:31;;;;;;;24.98;15.77;;;;;;;;;;5097455;28;20066;-82
2021/01/01 07:50:59;;;;;;;23.77;15.40;;;;;;;;;;5071958;28;20533;-82
2021/01/01 07:53:25;;;;;;;21.42;14.30;;;;;;;;;;5096755;28;20030;-81
2021/01/01 07:55:51;;;;;;;20.13;13.90;;;;;;;;;;5094437;28;20023;-79
2021/01/01 07:58:17;;;;;;;24.40;13.70;;;;;;;;;;5094009;28;20032;-81
2021/01/01 08:00:45;;;;;;;26.60;14.52;;;;;;;;;;5093204;28;20095;-81
2021/01/01 08:03:11;;;;;;;23.80;15.82;;;;;;;;;;5102924;28;20054;-75
2021/01/01 08:05:37;;;;;;;28.48;15.85;;;;;;;;;;5106248;28;20037;-77
2021/01/01 08:08:13;;;;;;;24.33;15.30;;;;;;;;;;5094165;28;20077;-78
2021/01/01 08:10:40;;;;;;;25.95;16.58;;;;;;;;;;5097188;28;20050;-76
2021/01/01 08:13:16;;;;;;;29.80;16.85;;;;;;;;;;5096481;28;20024;-77
2021/01/01 08:15:43;;;;;;;24.65;15.05;;;;;;;;;;5090665;28;20027;-78
2021/01/01 08:18:15;;;;;;;28.88;16.90;;;;;;;;;;5075442;28;20028;-77
2021/01/01 08:20:41;;;;;;;22.73;15.57;;;;;;;;;;5086957;28;20097;-77
2021/01/01 08:23:09;;;;;;;23.38;13.70;;;;;;;;;;5088932;28;20021;-77
2021/01/01 08:25:36;;;;;;;26.17;15.88;;;;;;;;;;5089056;28;20023;-78
2021/01/01 08:28:03;;;;;;;22.98;16.08;;;;;;;;;;5066961;28;20024;-78
2021/01/01 08:30:30;;;;;;;25.67;15.40;;;;;;;;;;5093971;28;20047;-80
2021/01/01 08:32:57;;;;;;;27.70;15.27;;;;;;;;;;5069059;28;20139;-76
2021/01/01 08:35:23;;;;;;;26.67;14.85;;;;;;;;;;5072001;28;20020;-76
2021/01/01 08:37:49;;;;;;;28.63;16.13;;;;;;;;;;5073836;28;20031;-75
2021/01/01 08:40:15;;;;;;;24.75;15.40;;;;;;;;;;5072915;28;20024;-78
2021/01/01 08:42:41;;;;;;;21.70;14.65;;;;;;;;;;5095745;28;20017;-76
2021/01/01 08:45:09;;;;;;;25.35;15.90;;;;;;;;;;5076525;28;20107;-77
2021/01/01 08:47:38;;;;;;;27.13;15.70;;;;;;;;;;5075624;28;20032;-77
2021/01/01 08:50:05;;;;;;;26.40;16.45;;;;;;;;;;5088319;28;20020;-80
2021/01/01 08:52:32;;;;;;;26.23;17.02;;;;;;;;;;5096117;28;20390;-79
2021/01/01 08:54:58;;;;;;;25.70;15.98;;;;;;;;;;5110485;28;20073;-78
2021/01/01 08:57:28;;;;;;;32.17;17.83;;;;;;;;;;5105146;28;20104;-77
2021/01/01 09:00:00;;;;;;;26.20;17.70;;;;;;;;;;5090394;28;20058;-73
2021/01/01 09:02:30;;;;;;;24.65;15.88;;;;;;;;;;5091235;28;20024;-76
2021/01/01 09:04:58;;;;;;;25.13;16.90;;;;;;;;;;5093968;28;20020;-76
2021/01/01 09:07:25;;;;;;;23.73;15.70;;;;;;;;;;5094479;28;20028;-77
2021/01/01 09:09:51;;;;;;;27.63;15.70;;;;;;;;;;5064871;28;20096;-77
2021/01/01 09:12:21;;;;;;;23.52;15.63;;;;;;;;;;5095099;28;20095;-76
2021/01/01 09:14:55;;;;;;;27.00;16.13;;;;;;;;;;5094753;28;20024;-77
2021/01/01 09:17:22;;;;;;;22.83;15.13;;;;;;;;;;5091574;28;20020;-77
2021/01/01 09:19:59;;;;;;;24.55;15.73;;;;;;;;;;5076009;28;20028;-79
2021/01/01 09:22:25;;;;;;;25.73;15.85;;;;;;;;;;5074083;28;20107;-79
2021/01/01 09:24:54;;;;;;;23.08;15.25;;;;;;;;;;5083558;28;20016;-85
2021/01/01 09:27:22;;;;;;;23.48;15.20;;;;;;;;;;5069255;28;20028;-78
2021/01/01 09:29:48;;;;;;;21.95;14.43;;;;;;;;;;5083571;28;20019;-77
2021/01/01 09:32:15;;;;;;;24.35;15.05;;;;;;;;;;5077264;28;20083;-78
2021/01/01 09:34:41;;;;;;;26.40;14.98;;;;;;;;;;5061666;28;20020;-78
2021/01/01 09:37:08;;;;;;;24.00;15.27;;;;;;;;;;5057242;28;20028;-79
2021/01/01 09:39:34;;;;;;;24.42;14.50;;;;;;;;;;5086112;28;20077;-83
2021/01/01 09:42:00;;;;;;;22.33;13.02;;;;;;;;;;5080566;28;20031;-77
2021/01/01 09:44:26;;;;;;;24.00;14.25;;;;;;;;;;5095660;28;20103;-79
2021/01/01 09:46:53;;;;;;;21.50;13.98;;;;;;;;;;5094074;28;20020;-77
2021/01/01 09:49:20;;;;;;;21.88;14.27;;;;;;;;;;5057312;28;20067;-81
2021/01/01 09:51:46;;;;;;;20.73;12.60;;;;;;;;;;5067903;28;20051;-75
2021/01/01 09:54:12;;;;;;;21.35;13.75;;;;;;;;;;5091968;28;20099;-79
2021/01/01 09:56:39;;;;;;;22.35;13.38;;;;;;;;;;5091264;28;20028;-77
2021/01/01 09:59:05;;;;;;;22.73;14.23;;;;;;;;;;5093868;28;20081;-79
2021/01/01 10:01:32;;;;;;;22.23;14.13;;;;;;;;;;5072560;28;20370;-77
2021/01/01 10:03:58;;;;;;;25.38;16.23;;;;;;;;;;5094610;28;20016;-75
2021/01/01 10:06:24;;;;;;;25.67;14.63;;;;;;;;;;5093901;28;20027;-74
2021/01/01 10:08:50;;;;;;;24.45;14.18;;;;;;;;;;5072336;28;20035;-74
2021/01/01 10:11:16;;;;;;;27.13;14.52;;;;;;;;;;5095022;28;20024;-76
2021/01/01 10:13:43;;;;;;;27.15;15.77;;;;;;;;;;5093601;28;20466;-77
2021/01/01 10:16:09;;;;;;;27.88;16.33;;;;;;;;;;5076249;28;20519;-76
2021/01/01 10:18:36;;;;;;;33.20;20.20;;;;;;;;;;5093210;28;20397;-75
2021/01/01 10:21:03;;;;;;;31.65;19.50;;;;;;;;;;5093127;28;20020;-76
2021/01/01 10:23:29;;;;;;;29.52;19.95;;;;;;;;;;5093187;28;20051;-78
2021/01/01 10:25:55;;;;;;;32.30;21.02;;;;;;;;;;5075366;28;20485;-76
2021/01/01 10:28:21;;;;;;;36.10;21.98;;;;;;;;;;5093217;28;20036;-80
2021/01/01 10:30:47;;;;;;;32.97;21.55;;;;;;;;;;5093126;28;20131;-78
2021/01/01 10:33:14;;;;;;;31.45;21.55;;;;;;;;;;5074273;28;20031;-85
2021/01/01 10:35:41;;;;;;;30.05;19.55;;;10.10;99.90;;;;;;5074904;28;20068;-79
2021/01/01 10:38:07;;;;;;;28.85;19.27;;;10.00;99.90;;;;;;5075647;28;20032;-80
2021/01/01 10:40:32;;;;;;;30.42;20.48;;;10.00;99.90;;;;;;5089317;28;20031;-76
2021/01/01 10:42:58;;;;;;;28.30;17.73;;;10.10;99.90;;;;;;5094300;28;20058;-75
2021/01/01 10:45:24;;;;;;;33.80;20.02;;;10.20;99.90;;;;;;5074014;28;20080;-76
2021/01/01 10:47:50;;;;;;;27.13;17.60;;;10.20;99.90;;;;;;5072481;28;20079;-76
2021/01/01 10:50:16;;;;;;;29.92;18.15;;;10.30;99.90;;;;;;5090149;28;20608;-77
2021/01/01 10:52:42;;;;;;;28.33;18.15;;;10.50;99.90;;;;;;5090202;28;20028;-79
2021/01/01 10:55:08;;;;;;;26.08;17.35;;;10.50;99.90;;;;;;5071523;28;20109;-78
2021/01/01 10:57:34;;;;;;;28.88;18.55;;;10.50;99.90;;;;;;5069558;28;20036;-77
2021/01/01 11:00:00;;;;;;;24.63;16.83;;;10.60;99.90;;;;;;5068716;28;20032;-81
2021/01/01 11:02:26;;;;;;;29.98;19.35;;;10.60;99.90;;;;;;5074079;28;20382;-80
2021/01/01 11:04:52;;;;;;;31.95;19.38;;;10.60;99.90;;;;;;5091345;28;20054;-75
2021/01/01 11:07:18;;;;;;;27.85;19.58;;;10.60;99.90;;;;;;5074888;28;20036;-81
2021/01/01 11:09:43;;;;;;;28.10;18.52;;;10.70;99.90;;;;;;5063836;28;20031;-77
2021/01/01 11:12:09;;;;;;;27.63;16.63;;;10.80;99.90;;;;;;5092903;28;20059;-77
2021/01/01 12:25:46;;;;;;;16.25;8.85;;;11.80;99.90;;;;;;5089156;28;20769;-76
2021/01/01 12:28:14;;;;;;;12.82;8.65;;;11.70;99.90;;;;;;5069997;28;20025;-73
2021/01/01 12:30:41;;;;;;;20.02;9.68;;;11.70;99.90;;;;;;5091190;28;20056;-77
2021/01/01 12:33:08;;;;;;;13.40;9.23;;;11.70;99.90;;;;;;5092238;28;20081;-75
2021/01/01 12:35:37;;;;;;;15.77;9.25;;;11.70;99.90;;;;;;5097358;28;20020;-77
2021/01/01 12:38:08;;;;;;;19.60;9.52;;;11.70;99.90;;;;;;5095971;28;20020;-75
2021/01/01 12:40:35;;;;;;;21.08;11.93;;;11.70;99.90;;;;;;5076967;28;20402;-78
2021/01/01 12:43:04;;;;;;;22.95;13.32;;;11.70;99.90;;;;;;5085821;28;20020;-79
2021/01/01 12:45:31;;;;;;;28.17;16.05;;;11.70;99.90;;;;;;5092689;28;20021;-77
2021/01/01 12:47:57;;;;;;;24.25;12.45;;;11.70;99.90;;;;;;5079864;28;20047;-74
2021/01/01 12:50:24;;;;;;;14.25;9.85;;;11.70;99.90;;;;;;5103298;28;20032;-75
2021/01/01 12:52:57;;;;;;;24.60;12.70;;;11.80;99.90;;;;;;5097363;28;20458;-75
2021/01/01 12:55:24;;;;;;;24.50;14.48;;;11.70;99.90;;;;;;5077897;28;20031;-77
2021/01/01 12:57:50;;;;;;;23.77;14.82;;;11.60;99.90;;;;;;5076717;28;20024;-78
2021/01/01 13:00:16;;;;;;;30.45;14.25;;;11.70;99.90;;;;;;5083238;28;20024;-77
2021/01/01 13:02:42;;;;;;;26.48;16.58;;;11.70;99.90;;;;;;5069244;28;20031;-76
2021/01/01 13:05:09;;;;;;;22.10;12.57;;;11.70;99.90;;;;;;5091830;28;20020;-77
2021/01/01 13:07:35;;;;;;;27.63;16.40;;;11.50;99.90;;;;;;5092617;28;20024;-78
2021/01/01 13:10:08;;;;;;;23.77;14.13;;;11.50;99.90;;;;;;5096052;28;20016;-76
2021/01/01 13:12:33;;;;;;;26.05;14.93;;;11.50;99.90;;;;;;5096057;28;20051;-77
2021/01/01 13:14:59;;;;;;;21.58;13.15;;;11.50;99.90;;;;;;5095718;28;20492;-78
2021/01/01 13:17:26;;;;;;;25.30;14.77;;;11.50;99.90;;;;;;5095352;28;20385;-77
2021/01/01 13:19:52;;;;;;;22.33;14.50;;;11.40;99.90;;;;;;5095175;28;20020;-76
2021/01/01 13:22:18;;;;;;;20.65;11.75;;;11.40;99.90;;;;;;5059914;28;20028;-77
2021/01/01 13:24:44;;;;;;;23.95;13.38;;;11.30;99.90;;;;;;5095335;28;20070;-76
2021/01/01 13:27:32;;;;;;;22.77;13.57;;;11.30;99.90;;;;;;5095021;28;20024;-77
2021/01/01 13:29:58;;;;;;;20.05;12.18;;;11.30;99.90;;;;;;5064964;28;20078;-76
2021/01/01 13:32:24;;;;;;;25.58;13.48;;;11.30;99.90;;;;;;5068163;28;20020;-79
2021/01/01 13:34:49;;;;;;;27.27;14.00;;;11.30;99.90;;;;;;5063037;28;20016;-77
2021/01/01 13:37:15;;;;;;;23.83;13.88;;;11.30;99.90;;;;;;5095113;28;20027;-77
2021/01/01 13:39:42;;;;;;;24.02;12.80;;;11.30;99.90;;;;;;5061993;28;20025;-76
2021/01/01 13:42:11;;;;;;;27.75;14.68;;;11.20;99.90;;;;;;5073904;28;20032;-78
2021/01/01 13:44:37;;;;;;;22.88;13.52;;;11.20;99.90;;;;;;5086881;28;20528;-75
2021/01/01 13:47:04;;;;;;;26.33;14.38;;;11.10;99.90;;;;;;5102440;28;20032;-76
2021/01/01 13:49:30;;;;;;;22.17;12.95;;;11.00;99.90;;;;;;5101302;28;20032;-79
2021/01/01 13:51:55;;;;;;;26.60;15.85;;;10.90;99.90;;;;;;5076946;28;20035;-81
2021/01/01 13:54:21;;;;;;;29.25;14.85;;;10.80;99.90;;;;;;5059815;28;20115;-76
2021/01/01 13:56:56;;;;;;;25.40;15.00;;;10.70;99.90;;;;;;5057146;28;20035;-83
2021/01/01 13:59:22;;;;;;;30.55;17.38;;;10.70;99.90;;;;;;5075803;28;20020;-76
2021/01/01 14:01:51;;;;;;;29.65;18.48;;;10.70;99.90;;;;;;5083482;28;20436;-82
2021/01/01 14:04:17;;;;;;;45.25;23.60;;;10.70;99.90;;;;;;5078868;28;20374;-80
2021/01/01 14:06:42;;;;;;;43.92;24.90;;;10.70;99.90;;;;;;5094355;28;20035;-75
2021/01/01 14:09:08;;;;;;;52.97;28.05;;;10.70;99.90;;;;;;5092972;28;20043;-78
2021/01/01 14:11:34;;;;;;;48.97;25.88;;;10.70;99.90;;;;;;5063897;28;20028;-78
2021/01/01 14:14:00;;;;;;;47.55;25.90;;;10.60;99.90;;;;;;5094623;28;20462;-76
2021/01/01 14:16:26;;;;;;;39.78;21.33;;;10.60;99.90;;;;;;5094102;28;20028;-78
2021/01/01 14:18:51;;;;;;;42.33;22.83;;;10.60;99.90;;;;;;5094004;28;20401;-75
2021/01/01 14:21:29;;;;;;;54.03;24.83;;;10.60;99.90;;;;;;5071440;28;20027;-76
2021/01/01 14:23:56;;;;;;;43.70;27.95;;;10.50;99.90;;;;;;5085246;28;20024;-76
2021/01/01 14:26:22;;;;;;;44.75;25.48;;;10.40;99.90;;;;;;5094083;28;20024;-79
2021/01/01 14:28:48;;;;;;;51.13;26.88;;;10.30;99.90;;;;;;5075924;28;20418;-76
2021/01/01 14:31:14;;;;;;;57.33;31.50;;;10.20;99.90;;;;;;5074126;28;20063;-76
2021/01/01 14:33:39;;;;;;;45.30;24.25;;;10.10;99.90;;;;;;5081047;28;20052;-75
2021/01/01 14:36:06;;;;;;;43.47;24.20;;;10.10;99.90;;;;;;5094129;28;20037;-77
2021/01/01 14:38:32;;;;;;;47.05;26.65;;;10.00;99.90;;;;;;5094399;28;20127;-81
2021/01/01 14:40:58;;;;;;;48.83;27.50;;;9.90;99.90;;;;;;5068365;28;20108;-77
2021/01/01 14:43:24;;;;;;;43.22;24.98;;;9.90;99.90;;;;;;5069711;28;20035;-76
2021/01/01 14:45:50;;;;;;;51.53;26.17;;;9.90;99.90;;;;;;5079758;28;20529;-79